sensor_id;sensor_type;location;lat;lon;timestamp;P1;durP1;ratioP1;P2;durP2;ratioP2
24677;SDS011;12800;53.094;8.778;2023-02-15T00:01:33;21.97;;;14.37;;
24677;SDS011;12800;53.094;8.778;2023-02-15T00:03:59;22.07;;;14.40;;
24677;SDS011;12800;53.094;8.778;2023-02-15T00:06:25;20.13;;;13.47;;
24677;SDS011;12800;53.094;8.778;2023-02-15T00:08:51;39.87;;;24.20;;
24677;SDS011;12800;53.094;8.778;2023-02-15T00:11:18;19.70;;;14.43;;
24677;SDS011;12800;53.094;8.778;2023-02-15T00:14:03;22.37;;;14.40;;
24677;SDS011;12800;53.094;8.778;2023-02-15T00:16:30;22.90;;;14.83;;
24677;SDS011;12800;53.094;8.778;2023-02-15T00:18:56;21.13;;;14.80;;
24677;SDS011;12800;53.094;8.778;2023-02-15T00:21:21;18.50;;;13.60;;
24677;SDS011;12800;53.094;8.778;2023-02-15T00:23:47;23.73;;;14.07;;
24677;SDS011;12800;53.094;8.778;2023-02-15T00:26:13;23.40;;;14.43;;
24677;SDS011;12800;53.094;8.778;2023-02-15T00:28:38;23.80;;;15.03;;
24677;SDS011;12800;53.094;8.778;2023-02-15T00:31:11;23.63;;;15.37;;
24677;SDS011;12800;53.094;8.778;2023-02-15T00:33:38;21.77;;;14.43;;
24677;SDS011;12800;53.094;8.778;2023-02-15T00:36:05;24.47;;;15.37;;
24677;SDS011;12800;53.094;8.778;2023-02-15T00:38:32;24.80;;;16.03;;
24677;SDS011;12800;53.094;8.778;2023-02-15T00:40:59;25.00;;;15.80;;
24677;SDS011;12800;53.094;8.778;2023-02-15T00:43:27;24.13;;;15.43;;
24677;SDS011;12800;53.094;8.778;2023-02-15T00:45:53;20.77;;;15.17;;
24677;SDS011;12800;53.094;8.778;2023-02-15T00:48:19;25.37;;;16.53;;
24677;SDS011;12800;53.094;8.778;2023-02-15T00:50:46;23.10;;;15.97;;
24677;SDS011;12800;53.094;8.778;2023-02-15T00:53:13;24.13;;;14.73;;
24677;SDS011;12800;53.094;8.778;2023-02-15T00:55:39;22.63;;;16.20;;
24677;SDS011;12800;53.094;8.778;2023-02-15T00:58:05;20.43;;;14.70;;
24677;SDS011;12800;53.094;8.778;2023-02-15T01:00:32;23.53;;;15.53;;
24677;SDS011;12800;53.094;8.778;2023-02-15T01:02:57;24.20;;;15.77;;
24677;SDS011;12800;53.094;8.778;2023-02-15T01:05:23;24.63;;;15.80;;
24677;SDS011;12800;53.094;8.778;2023-02-15T01:07:49;25.67;;;15.80;;
24677;SDS011;12800;53.094;8.778;2023-02-15T01:10:14;22.87;;;16.03;;
24677;SDS011;12800;53.094;8.778;2023-02-15T01:12:40;25.70;;;16.00;;
24677;SDS011;12800;53.094;8.778;2023-02-15T01:15:06;28.83;;;15.90;;
24677;SDS011;12800;53.094;8.778;2023-02-15T01:17:32;22.43;;;14.33;;
24677;SDS011;12800;53.094;8.778;2023-02-15T01:19:57;26.03;;;17.00;;
24677;SDS011;12800;53.094;8.778;2023-02-15T01:22:24;25.13;;;16.60;;
24677;SDS011;12800;53.094;8.778;2023-02-15T01:24:50;24.33;;;15.80;;
24677;SDS011;12800;53.094;8.778;2023-02-15T01:27:15;26.23;;;16.13;;
24677;SDS011;12800;53.094;8.778;2023-02-15T01:29:41;44.10;;;27.87;;
24677;SDS011;12800;53.094;8.778;2023-02-15T01:32:06;26.57;;;17.40;;
24677;SDS011;12800;53.094;8.778;2023-02-15T01:34:32;31.97;;;18.87;;
24677;SDS011;12800;53.094;8.778;2023-02-15T01:36:58;29.37;;;17.43;;
24677;SDS011;12800;53.094;8.778;2023-02-15T01:39:23;33.53;;;17.97;;
24677;SDS011;12800;53.094;8.778;2023-02-15T01:41:49;31.57;;;18.57;;
24677;SDS011;12800;53.094;8.778;2023-02-15T01:47:29;31.53;;;16.77;;
24677;SDS011;12800;53.094;8.778;2023-02-15T01:52:37;31.13;;;17.03;;
24677;SDS011;12800;53.094;8.778;2023-02-15T01:55:06;30.17;;;15.93;;
24677;SDS011;12800;53.094;8.778;2023-02-15T01:57:32;27.40;;;15.53;;
24677;SDS011;12800;53.094;8.778;2023-02-15T01:59:59;25.97;;;14.67;;
24677;SDS011;12800;53.094;8.778;2023-02-15T02:02:28;23.43;;;14.70;;
24677;SDS011;12800;53.094;8.778;2023-02-15T02:04:56;22.77;;;13.87;;
24677;SDS011;12800;53.094;8.778;2023-02-15T02:07:27;25.53;;;14.80;;
24677;SDS011;12800;53.094;8.778;2023-02-15T02:09:56;24.07;;;14.17;;
24677;SDS011;12800;53.094;8.778;2023-02-15T02:12:22;21.93;;;13.63;;
24677;SDS011;12800;53.094;8.778;2023-02-15T02:14:49;21.73;;;12.53;;
24677;SDS011;12800;53.094;8.778;2023-02-15T02:17:18;17.67;;;11.93;;
24677;SDS011;12800;53.094;8.778;2023-02-15T02:42:09;17.57;;;12.70;;
24677;SDS011;12800;53.094;8.778;2023-02-15T02:44:49;16.37;;;11.63;;
24677;SDS011;12800;53.094;8.778;2023-02-15T02:50:01;16.47;;;11.07;;
24677;SDS011;12800;53.094;8.778;2023-02-15T02:55:11;16.80;;;11.43;;
24677;SDS011;12800;53.094;8.778;2023-02-15T03:01:03;20.17;;;12.60;;
24677;SDS011;12800;53.094;8.778;2023-02-15T03:03:34;23.30;;;12.13;;
24677;SDS011;12800;53.094;8.778;2023-02-15T03:06:05;25.40;;;12.47;;
24677;SDS011;12800;53.094;8.778;2023-02-15T03:08:36;20.77;;;12.47;;
24677;SDS011;12800;53.094;8.778;2023-02-15T03:11:07;19.10;;;12.33;;
24677;SDS011;12800;53.094;8.778;2023-02-15T03:13:34;23.70;;;12.60;;
24677;SDS011;12800;53.094;8.778;2023-02-15T03:16:00;23.63;;;13.17;;
24677;SDS011;12800;53.094;8.778;2023-02-15T03:18:46;31.67;;;13.43;;
24677;SDS011;12800;53.094;8.778;2023-02-15T03:21:22;21.00;;;12.33;;
24677;SDS011;12800;53.094;8.778;2023-02-15T03:23:53;18.53;;;12.37;;
24677;SDS011;12800;53.094;8.778;2023-02-15T03:26:22;18.47;;;12.30;;
24677;SDS011;12800;53.094;8.778;2023-02-15T03:28:49;18.07;;;12.07;;
24677;SDS011;12800;53.094;8.778;2023-02-15T03:31:18;16.53;;;11.37;;
24677;SDS011;12800;53.094;8.778;2023-02-15T03:33:53;16.63;;;11.80;;
24677;SDS011;12800;53.094;8.778;2023-02-15T03:36:25;16.27;;;10.73;;
24677;SDS011;12800;53.094;8.778;2023-02-15T03:39:03;17.87;;;11.60;;
24677;SDS011;12800;53.094;8.778;2023-02-15T03:42:04;18.43;;;11.67;;
24677;SDS011;12800;53.094;8.778;2023-02-15T03:44:32;21.07;;;11.30;;
24677;SDS011;12800;53.094;8.778;2023-02-15T03:47:08;17.17;;;11.43;;
24677;SDS011;12800;53.094;8.778;2023-02-15T03:52:55;17.57;;;11.43;;
24677;SDS011;12800;53.094;8.778;2023-02-15T03:55:22;18.60;;;12.00;;
24677;SDS011;12800;53.094;8.778;2023-02-15T03:57:48;20.23;;;10.70;;
24677;SDS011;12800;53.094;8.778;2023-02-15T04:00:32;21.80;;;11.43;;
24677;SDS011;12800;53.094;8.778;2023-02-15T04:03:26;29.47;;;12.13;;
24677;SDS011;12800;53.094;8.778;2023-02-15T04:06:01;19.63;;;10.70;;
24677;SDS011;12800;53.094;8.778;2023-02-15T04:08:28;26.03;;;11.77;;
24677;SDS011;12800;53.094;8.778;2023-02-15T04:11:12;21.57;;;11.23;;
24677;SDS011;12800;53.094;8.778;2023-02-15T04:13:38;20.23;;;11.10;;
24677;SDS011;12800;53.094;8.778;2023-02-15T04:16:04;17.47;;;11.57;;
24677;SDS011;12800;53.094;8.778;2023-02-15T04:21:25;17.37;;;11.47;;
24677;SDS011;12800;53.094;8.778;2023-02-15T04:24:11;16.30;;;11.70;;
24677;SDS011;12800;53.094;8.778;2023-02-15T04:26:56;24.37;;;13.83;;
24677;SDS011;12800;53.094;8.778;2023-02-15T04:29:22;20.37;;;12.90;;
24677;SDS011;12800;53.094;8.778;2023-02-15T04:31:49;19.43;;;13.00;;
24677;SDS011;12800;53.094;8.778;2023-02-15T04:34:15;16.90;;;11.37;;
24677;SDS011;12800;53.094;8.778;2023-02-15T04:36:41;14.93;;;10.33;;
24677;SDS011;12800;53.094;8.778;2023-02-15T04:39:07;17.73;;;10.90;;
24677;SDS011;12800;53.094;8.778;2023-02-15T04:41:34;15.87;;;11.50;;
24677;SDS011;12800;53.094;8.778;2023-02-15T04:44:00;13.93;;;9.53;;
24677;SDS011;12800;53.094;8.778;2023-02-15T04:46:26;15.10;;;10.67;;
24677;SDS011;12800;53.094;8.778;2023-02-15T04:48:53;25.40;;;10.47;;
24677;SDS011;12800;53.094;8.778;2023-02-15T04:51:19;13.13;;;9.77;;
24677;SDS011;12800;53.094;8.778;2023-02-15T04:53:45;17.10;;;9.57;;
24677;SDS011;12800;53.094;8.778;2023-02-15T04:56:10;17.93;;;9.70;;
24677;SDS011;12800;53.094;8.778;2023-02-15T04:58:36;16.77;;;10.47;;
24677;SDS011;12800;53.094;8.778;2023-02-15T05:01:05;17.37;;;10.73;;
24677;SDS011;12800;53.094;8.778;2023-02-15T05:03:34;14.80;;;9.53;;
24677;SDS011;12800;53.094;8.778;2023-02-15T05:06:00;15.37;;;10.43;;
24677;SDS011;12800;53.094;8.778;2023-02-15T05:08:26;15.80;;;10.50;;
24677;SDS011;12800;53.094;8.778;2023-02-15T05:10:52;18.10;;;10.60;;
24677;SDS011;12800;53.094;8.778;2023-02-15T05:13:17;19.93;;;10.60;;
24677;SDS011;12800;53.094;8.778;2023-02-15T05:15:47;14.93;;;10.47;;
24677;SDS011;12800;53.094;8.778;2023-02-15T05:18:13;15.27;;;10.40;;
24677;SDS011;12800;53.094;8.778;2023-02-15T05:20:40;16.17;;;10.43;;
24677;SDS011;12800;53.094;8.778;2023-02-15T05:23:05;16.17;;;10.67;;
24677;SDS011;12800;53.094;8.778;2023-02-15T05:25:31;21.67;;;11.30;;
24677;SDS011;12800;53.094;8.778;2023-02-15T05:28:15;17.27;;;10.67;;
24677;SDS011;12800;53.094;8.778;2023-02-15T05:30:50;25.57;;;11.80;;
24677;SDS011;12800;53.094;8.778;2023-02-15T05:33:27;20.00;;;11.20;;
24677;SDS011;12800;53.094;8.778;2023-02-15T05:35:52;18.33;;;11.20;;
24677;SDS011;12800;53.094;8.778;2023-02-15T05:38:18;15.80;;;11.40;;
24677;SDS011;12800;53.094;8.778;2023-02-15T05:40:43;19.00;;;12.33;;
24677;SDS011;12800;53.094;8.778;2023-02-15T05:43:09;18.43;;;11.67;;
24677;SDS011;12800;53.094;8.778;2023-02-15T05:45:35;18.03;;;10.63;;
24677;SDS011;12800;53.094;8.778;2023-02-15T05:48:00;17.97;;;11.80;;
24677;SDS011;12800;53.094;8.778;2023-02-15T05:50:26;21.47;;;11.70;;
24677;SDS011;12800;53.094;8.778;2023-02-15T05:52:52;19.37;;;11.83;;
24677;SDS011;12800;53.094;8.778;2023-02-15T05:55:18;17.87;;;11.57;;
24677;SDS011;12800;53.094;8.778;2023-02-15T05:57:43;17.37;;;10.83;;
24677;SDS011;12800;53.094;8.778;2023-02-15T06:00:09;15.73;;;11.27;;
24677;SDS011;12800;53.094;8.778;2023-02-15T06:02:36;18.00;;;11.70;;
24677;SDS011;12800;53.094;8.778;2023-02-15T06:05:03;19.83;;;11.40;;
24677;SDS011;12800;53.094;8.778;2023-02-15T06:07:29;18.13;;;11.60;;
24677;SDS011;12800;53.094;8.778;2023-02-15T06:09:55;18.73;;;11.93;;
24677;SDS011;12800;53.094;8.778;2023-02-15T06:12:20;17.07;;;11.07;;
24677;SDS011;12800;53.094;8.778;2023-02-15T06:14:46;18.87;;;11.47;;
24677;SDS011;12800;53.094;8.778;2023-02-15T06:17:11;18.33;;;12.00;;
24677;SDS011;12800;53.094;8.778;2023-02-15T06:19:37;15.53;;;10.90;;
24677;SDS011;12800;53.094;8.778;2023-02-15T06:22:02;17.90;;;10.67;;
24677;SDS011;12800;53.094;8.778;2023-02-15T06:24:28;13.97;;;10.17;;
24677;SDS011;12800;53.094;8.778;2023-02-15T06:26:54;18.37;;;10.90;;
24677;SDS011;12800;53.094;8.778;2023-02-15T06:29:19;15.63;;;11.20;;
24677;SDS011;12800;53.094;8.778;2023-02-15T06:31:45;16.03;;;10.40;;
24677;SDS011;12800;53.094;8.778;2023-02-15T06:34:10;14.10;;;10.43;;
24677;SDS011;12800;53.094;8.778;2023-02-15T06:36:36;16.23;;;11.50;;
24677;SDS011;12800;53.094;8.778;2023-02-15T06:39:02;14.03;;;9.43;;
24677;SDS011;12800;53.094;8.778;2023-02-15T06:41:29;18.10;;;12.30;;
24677;SDS011;12800;53.094;8.778;2023-02-15T06:43:55;16.40;;;10.53;;
24677;SDS011;12800;53.094;8.778;2023-02-15T06:46:20;13.17;;;9.60;;
24677;SDS011;12800;53.094;8.778;2023-02-15T06:48:46;13.83;;;10.00;;
24677;SDS011;12800;53.094;8.778;2023-02-15T06:51:12;15.07;;;9.90;;
24677;SDS011;12800;53.094;8.778;2023-02-15T06:53:37;15.10;;;10.07;;
24677;SDS011;12800;53.094;8.778;2023-02-15T06:56:03;14.23;;;10.87;;
24677;SDS011;12800;53.094;8.778;2023-02-15T06:58:38;14.77;;;10.87;;
24677;SDS011;12800;53.094;8.778;2023-02-15T07:01:05;13.80;;;9.63;;
24677;SDS011;12800;53.094;8.778;2023-02-15T07:03:31;16.17;;;10.63;;
24677;SDS011;12800;53.094;8.778;2023-02-15T07:05:58;15.27;;;10.00;;
24677;SDS011;12800;53.094;8.778;2023-02-15T07:08:25;13.73;;;9.47;;
24677;SDS011;12800;53.094;8.778;2023-02-15T07:10:52;15.17;;;10.10;;
24677;SDS011;12800;53.094;8.778;2023-02-15T07:13:18;13.90;;;9.80;;
24677;SDS011;12800;53.094;8.778;2023-02-15T07:15:45;14.73;;;9.83;;
24677;SDS011;12800;53.094;8.778;2023-02-15T07:18:11;14.03;;;9.60;;
24677;SDS011;12800;53.094;8.778;2023-02-15T07:20:37;19.07;;;10.03;;
24677;SDS011;12800;53.094;8.778;2023-02-15T07:23:03;13.43;;;9.80;;
24677;SDS011;12800;53.094;8.778;2023-02-15T07:25:29;17.37;;;9.73;;
24677;SDS011;12800;53.094;8.778;2023-02-15T07:27:59;16.90;;;10.10;;
24677;SDS011;12800;53.094;8.778;2023-02-15T07:30:26;14.10;;;10.07;;
24677;SDS011;12800;53.094;8.778;2023-02-15T07:32:56;15.07;;;10.13;;
24677;SDS011;12800;53.094;8.778;2023-02-15T07:35:52;12.43;;;9.30;;
24677;SDS011;12800;53.094;8.778;2023-02-15T07:38:19;14.77;;;9.10;;
24677;SDS011;12800;53.094;8.778;2023-02-15T07:40:45;12.63;;;9.50;;
24677;SDS011;12800;53.094;8.778;2023-02-15T07:43:11;13.50;;;9.87;;
24677;SDS011;12800;53.094;8.778;2023-02-15T07:45:37;14.00;;;10.50;;
24677;SDS011;12800;53.094;8.778;2023-02-15T07:48:04;13.93;;;9.80;;
24677;SDS011;12800;53.094;8.778;2023-02-15T07:50:30;13.60;;;9.70;;
24677;SDS011;12800;53.094;8.778;2023-02-15T07:52:56;13.00;;;9.63;;
24677;SDS011;12800;53.094;8.778;2023-02-15T07:55:22;15.20;;;10.47;;
24677;SDS011;12800;53.094;8.778;2023-02-15T07:57:48;15.67;;;9.87;;
24677;SDS011;12800;53.094;8.778;2023-02-15T08:00:16;15.27;;;11.00;;
24677;SDS011;12800;53.094;8.778;2023-02-15T08:02:50;11.57;;;9.03;;
24677;SDS011;12800;53.094;8.778;2023-02-15T08:05:35;13.17;;;10.20;;
24677;SDS011;12800;53.094;8.778;2023-02-15T08:08:01;12.60;;;9.23;;
24677;SDS011;12800;53.094;8.778;2023-02-15T08:10:26;16.87;;;10.20;;
24677;SDS011;12800;53.094;8.778;2023-02-15T08:13:12;13.07;;;8.87;;
24677;SDS011;12800;53.094;8.778;2023-02-15T08:15:38;12.57;;;9.60;;
24677;SDS011;12800;53.094;8.778;2023-02-15T08:18:04;18.10;;;9.90;;
24677;SDS011;12800;53.094;8.778;2023-02-15T08:20:29;15.33;;;10.07;;
24677;SDS011;12800;53.094;8.778;2023-02-15T08:22:55;12.40;;;9.60;;
24677;SDS011;12800;53.094;8.778;2023-02-15T08:25:21;15.10;;;10.03;;
24677;SDS011;12800;53.094;8.778;2023-02-15T08:27:47;13.83;;;10.70;;
24677;SDS011;12800;53.094;8.778;2023-02-15T08:30:14;14.97;;;10.60;;
24677;SDS011;12800;53.094;8.778;2023-02-15T08:32:40;14.47;;;10.27;;
24677;SDS011;12800;53.094;8.778;2023-02-15T08:35:05;16.37;;;12.40;;
24677;SDS011;12800;53.094;8.778;2023-02-15T08:37:31;15.60;;;11.37;;
24677;SDS011;12800;53.094;8.778;2023-02-15T08:39:57;15.10;;;11.10;;
24677;SDS011;12800;53.094;8.778;2023-02-15T08:42:22;16.03;;;10.27;;
24677;SDS011;12800;53.094;8.778;2023-02-15T08:44:48;14.00;;;10.27;;
24677;SDS011;12800;53.094;8.778;2023-02-15T08:47:15;13.30;;;10.30;;
24677;SDS011;12800;53.094;8.778;2023-02-15T08:49:41;16.50;;;10.40;;
24677;SDS011;12800;53.094;8.778;2023-02-15T08:52:06;15.70;;;11.07;;
24677;SDS011;12800;53.094;8.778;2023-02-15T08:54:32;15.57;;;10.73;;
24677;SDS011;12800;53.094;8.778;2023-02-15T08:56:58;17.97;;;11.07;;
24677;SDS011;12800;53.094;8.778;2023-02-15T08:59:24;15.57;;;11.97;;
24677;SDS011;12800;53.094;8.778;2023-02-15T09:01:52;16.17;;;10.93;;
24677;SDS011;12800;53.094;8.778;2023-02-15T09:04:18;15.90;;;11.47;;
24677;SDS011;12800;53.094;8.778;2023-02-15T09:06:46;17.33;;;12.40;;
24677;SDS011;12800;53.094;8.778;2023-02-15T09:09:13;36.93;;;23.60;;
24677;SDS011;12800;53.094;8.778;2023-02-15T09:11:40;20.20;;;14.37;;
24677;SDS011;12800;53.094;8.778;2023-02-15T09:14:08;19.77;;;11.43;;
24677;SDS011;12800;53.094;8.778;2023-02-15T09:16:38;16.93;;;11.97;;
24677;SDS011;12800;53.094;8.778;2023-02-15T09:19:05;16.30;;;12.10;;
24677;SDS011;12800;53.094;8.778;2023-02-15T09:21:32;16.03;;;11.77;;
24677;SDS011;12800;53.094;8.778;2023-02-15T09:24:00;16.80;;;11.20;;
24677;SDS011;12800;53.094;8.778;2023-02-15T09:26:29;19.23;;;13.33;;
24677;SDS011;12800;53.094;8.778;2023-02-15T09:28:57;18.30;;;12.70;;
24677;SDS011;12800;53.094;8.778;2023-02-15T09:31:47;19.53;;;13.80;;
24677;SDS011;12800;53.094;8.778;2023-02-15T09:34:15;17.73;;;13.77;;
24677;SDS011;12800;53.094;8.778;2023-02-15T09:36:43;18.03;;;13.00;;
24677;SDS011;12800;53.094;8.778;2023-02-15T09:50:22;19.23;;;13.43;;
24677;SDS011;12800;53.094;8.778;2023-02-15T09:55:48;17.17;;;12.33;;
24677;SDS011;12800;53.094;8.778;2023-02-15T10:01:41;21.07;;;14.80;;
24677;SDS011;12800;53.094;8.778;2023-02-15T10:15:32;20.83;;;14.93;;
24677;SDS011;12800;53.094;8.778;2023-02-15T10:17:57;23.27;;;15.03;;
24677;SDS011;12800;53.094;8.778;2023-02-15T10:26:19;18.67;;;14.77;;
24677;SDS011;12800;53.094;8.778;2023-02-15T10:34:19;24.67;;;14.87;;
24677;SDS011;12800;53.094;8.778;2023-02-15T10:37:01;21.83;;;16.17;;
24677;SDS011;12800;53.094;8.778;2023-02-15T10:53:17;24.13;;;15.30;;
24677;SDS011;12800;53.094;8.778;2023-02-15T10:55:49;23.43;;;15.77;;
24677;SDS011;12800;53.094;8.778;2023-02-15T11:01:44;24.93;;;16.70;;
24677;SDS011;12800;53.094;8.778;2023-02-15T11:06:58;22.63;;;16.20;;
24677;SDS011;12800;53.094;8.778;2023-02-15T11:09:33;21.13;;;15.60;;
24677;SDS011;12800;53.094;8.778;2023-02-15T11:12:07;19.70;;;15.77;;
24677;SDS011;12800;53.094;8.778;2023-02-15T11:14:40;22.13;;;15.80;;
24677;SDS011;12800;53.094;8.778;2023-02-15T11:17:14;20.43;;;15.90;;
24677;SDS011;12800;53.094;8.778;2023-02-15T11:22:34;23.60;;;17.63;;
24677;SDS011;12800;53.094;8.778;2023-02-15T11:25:00;20.60;;;16.07;;
24677;SDS011;12800;53.094;8.778;2023-02-15T11:27:32;21.33;;;16.20;;
24677;SDS011;12800;53.094;8.778;2023-02-15T11:32:32;20.27;;;16.07;;
24677;SDS011;12800;53.094;8.778;2023-02-15T11:40:41;22.37;;;16.63;;
24677;SDS011;12800;53.094;8.778;2023-02-15T11:43:23;25.03;;;16.77;;
24677;SDS011;12800;53.094;8.778;2023-02-15T11:45:59;23.17;;;16.47;;
24677;SDS011;12800;53.094;8.778;2023-02-15T11:48:24;26.93;;;17.80;;
24677;SDS011;12800;53.094;8.778;2023-02-15T11:50:50;22.87;;;17.47;;
24677;SDS011;12800;53.094;8.778;2023-02-15T11:53:17;23.43;;;17.20;;
24677;SDS011;12800;53.094;8.778;2023-02-15T11:55:47;26.83;;;17.77;;
24677;SDS011;12800;53.094;8.778;2023-02-15T11:58:25;26.20;;;16.37;;
24677;SDS011;12800;53.094;8.778;2023-02-15T12:01:02;24.47;;;17.20;;
24677;SDS011;12800;53.094;8.778;2023-02-15T12:04:13;25.97;;;17.17;;
24677;SDS011;12800;53.094;8.778;2023-02-15T12:06:47;26.03;;;16.67;;
24677;SDS011;12800;53.094;8.778;2023-02-15T12:09:28;24.87;;;17.90;;
24677;SDS011;12800;53.094;8.778;2023-02-15T12:12:19;24.47;;;16.63;;
24677;SDS011;12800;53.094;8.778;2023-02-15T12:15:03;22.73;;;16.23;;
24677;SDS011;12800;53.094;8.778;2023-02-15T12:17:34;25.63;;;16.63;;
24677;SDS011;12800;53.094;8.778;2023-02-15T12:22:45;25.47;;;17.20;;
24677;SDS011;12800;53.094;8.778;2023-02-15T12:25:21;26.53;;;17.97;;
24677;SDS011;12800;53.094;8.778;2023-02-15T12:27:50;25.73;;;16.63;;
24677;SDS011;12800;53.094;8.778;2023-02-15T12:30:27;21.90;;;18.10;;
24677;SDS011;12800;53.094;8.778;2023-02-15T12:33:35;26.10;;;19.00;;
24677;SDS011;12800;53.094;8.778;2023-02-15T12:36:01;27.00;;;18.63;;
24677;SDS011;12800;53.094;8.778;2023-02-15T12:38:42;25.67;;;19.03;;
24677;SDS011;12800;53.094;8.778;2023-02-15T12:41:22;29.87;;;19.10;;
24677;SDS011;12800;53.094;8.778;2023-02-15T12:44:06;25.97;;;18.60;;
24677;SDS011;12800;53.094;8.778;2023-02-15T12:46:41;24.90;;;18.13;;
24677;SDS011;12800;53.094;8.778;2023-02-15T12:51:46;27.70;;;19.47;;
24677;SDS011;12800;53.094;8.778;2023-02-15T12:54:37;32.23;;;20.57;;
24677;SDS011;12800;53.094;8.778;2023-02-15T12:59:58;28.23;;;20.47;;
24677;SDS011;12800;53.094;8.778;2023-02-15T13:02:28;30.20;;;21.67;;
24677;SDS011;12800;53.094;8.778;2023-02-15T13:04:55;31.33;;;21.13;;
24677;SDS011;12800;53.094;8.778;2023-02-15T13:07:23;32.20;;;22.83;;
24677;SDS011;12800;53.094;8.778;2023-02-15T13:09:54;32.07;;;22.37;;
24677;SDS011;12800;53.094;8.778;2023-02-15T13:14:48;35.57;;;22.50;;
24677;SDS011;12800;53.094;8.778;2023-02-15T13:17:17;34.00;;;21.33;;
24677;SDS011;12800;53.094;8.778;2023-02-15T13:19:50;28.97;;;21.53;;
24677;SDS011;12800;53.094;8.778;2023-02-15T13:22:23;28.83;;;20.13;;
24677;SDS011;12800;53.094;8.778;2023-02-15T13:24:56;28.60;;;21.90;;
24677;SDS011;12800;53.094;8.778;2023-02-15T13:27:26;29.50;;;20.93;;
24677;SDS011;12800;53.094;8.778;2023-02-15T13:29:59;27.20;;;21.10;;
24677;SDS011;12800;53.094;8.778;2023-02-15T13:32:34;30.43;;;21.40;;
24677;SDS011;12800;53.094;8.778;2023-02-15T13:35:03;30.30;;;21.90;;
24677;SDS011;12800;53.094;8.778;2023-02-15T13:42:46;30.23;;;21.17;;
24677;SDS011;12800;53.094;8.778;2023-02-15T13:45:33;32.63;;;21.37;;
24677;SDS011;12800;53.094;8.778;2023-02-15T13:48:10;32.47;;;22.40;;
24677;SDS011;12800;53.094;8.778;2023-02-15T13:55:40;34.00;;;22.43;;
24677;SDS011;12800;53.094;8.778;2023-02-15T13:58:39;33.10;;;21.70;;
24677;SDS011;12800;53.094;8.778;2023-02-15T14:01:11;30.87;;;20.47;;
24677;SDS011;12800;53.094;8.778;2023-02-15T14:03:56;30.90;;;21.10;;
24677;SDS011;12800;53.094;8.778;2023-02-15T14:06:49;32.80;;;21.63;;
24677;SDS011;12800;53.094;8.778;2023-02-15T14:12:38;33.23;;;22.73;;
24677;SDS011;12800;53.094;8.778;2023-02-15T14:18:24;33.17;;;20.70;;
24677;SDS011;12800;53.094;8.778;2023-02-15T14:35:27;29.73;;;19.40;;
24677;SDS011;12800;53.094;8.778;2023-02-15T14:37:57;29.23;;;20.17;;
24677;SDS011;12800;53.094;8.778;2023-02-15T14:40:36;31.50;;;20.37;;
24677;SDS011;12800;53.094;8.778;2023-02-15T14:49:14;28.27;;;18.33;;
24677;SDS011;12800;53.094;8.778;2023-02-15T14:54:54;29.53;;;18.63;;
24677;SDS011;12800;53.094;8.778;2023-02-15T15:02:12;30.50;;;18.87;;
24677;SDS011;12800;53.094;8.778;2023-02-15T15:04:45;26.93;;;18.00;;
24677;SDS011;12800;53.094;8.778;2023-02-15T15:15:47;28.17;;;16.70;;
24677;SDS011;12800;53.094;8.778;2023-02-15T15:18:09;27.70;;;18.23;;
24677;SDS011;12800;53.094;8.778;2023-02-15T15:20:55;26.00;;;17.63;;
24677;SDS011;12800;53.094;8.778;2023-02-15T15:25:47;23.83;;;16.33;;
24677;SDS011;12800;53.094;8.778;2023-02-15T15:50:26;25.80;;;16.80;;
24677;SDS011;12800;53.094;8.778;2023-02-15T15:52:53;25.07;;;17.17;;
24677;SDS011;12800;53.094;8.778;2023-02-15T15:55:23;24.20;;;16.93;;
24677;SDS011;12800;53.094;8.778;2023-02-15T15:57:52;30.27;;;17.27;;
24677;SDS011;12800;53.094;8.778;2023-02-15T16:02:54;27.33;;;16.23;;
24677;SDS011;12800;53.094;8.778;2023-02-15T16:05:23;27.63;;;17.43;;
24677;SDS011;12800;53.094;8.778;2023-02-15T16:07:48;26.77;;;17.53;;
24677;SDS011;12800;53.094;8.778;2023-02-15T16:10:21;25.83;;;16.47;;
24677;SDS011;12800;53.094;8.778;2023-02-15T16:12:49;26.73;;;16.57;;
24677;SDS011;12800;53.094;8.778;2023-02-15T16:15:23;27.53;;;16.77;;
24677;SDS011;12800;53.094;8.778;2023-02-15T16:17:52;25.47;;;17.50;;
24677;SDS011;12800;53.094;8.778;2023-02-15T16:20:35;24.23;;;16.50;;
24677;SDS011;12800;53.094;8.778;2023-02-15T16:28:51;25.60;;;16.77;;
24677;SDS011;12800;53.094;8.778;2023-02-15T16:31:18;25.27;;;15.43;;
24677;SDS011;12800;53.094;8.778;2023-02-15T16:33:44;24.10;;;15.30;;
24677;SDS011;12800;53.094;8.778;2023-02-15T16:36:32;27.07;;;17.20;;
24677;SDS011;12800;53.094;8.778;2023-02-15T16:41:23;23.90;;;15.87;;
24677;SDS011;12800;53.094;8.778;2023-02-15T16:43:53;24.03;;;16.10;;
24677;SDS011;12800;53.094;8.778;2023-02-15T16:48:53;28.87;;;17.77;;
24677;SDS011;12800;53.094;8.778;2023-02-15T16:51:24;24.47;;;16.53;;
24677;SDS011;12800;53.094;8.778;2023-02-15T16:53:53;27.07;;;17.97;;
24677;SDS011;12800;53.094;8.778;2023-02-15T16:56:23;24.50;;;16.93;;
24677;SDS011;12800;53.094;8.778;2023-02-15T16:58:51;29.27;;;16.93;;
24677;SDS011;12800;53.094;8.778;2023-02-15T17:01:20;23.13;;;15.57;;
24677;SDS011;12800;53.094;8.778;2023-02-15T17:03:49;27.47;;;17.00;;
24677;SDS011;12800;53.094;8.778;2023-02-15T17:06:23;25.07;;;15.60;;
24677;SDS011;12800;53.094;8.778;2023-02-15T17:08:51;25.53;;;16.73;;
24677;SDS011;12800;53.094;8.778;2023-02-15T17:11:18;26.90;;;16.83;;
24677;SDS011;12800;53.094;8.778;2023-02-15T17:16:50;25.03;;;16.60;;
24677;SDS011;12800;53.094;8.778;2023-02-15T17:19:25;30.37;;;17.50;;
24677;SDS011;12800;53.094;8.778;2023-02-15T17:22:26;32.63;;;18.90;;
24677;SDS011;12800;53.094;8.778;2023-02-15T17:24:49;33.87;;;18.17;;
24677;SDS011;12800;53.094;8.778;2023-02-15T17:27:27;28.97;;;18.03;;
24677;SDS011;12800;53.094;8.778;2023-02-15T17:29:56;26.40;;;16.93;;
24677;SDS011;12800;53.094;8.778;2023-02-15T17:32:24;27.57;;;17.23;;
24677;SDS011;12800;53.094;8.778;2023-02-15T17:35:08;27.67;;;17.77;;
24677;SDS011;12800;53.094;8.778;2023-02-15T17:38:29;27.70;;;17.37;;
24677;SDS011;12800;53.094;8.778;2023-02-15T17:40:45;29.97;;;18.00;;
24677;SDS011;12800;53.094;8.778;2023-02-15T17:43:11;25.93;;;16.73;;
24677;SDS011;12800;53.094;8.778;2023-02-15T17:45:42;27.77;;;16.40;;
24677;SDS011;12800;53.094;8.778;2023-02-15T17:48:17;27.20;;;18.00;;
24677;SDS011;12800;53.094;8.778;2023-02-15T17:50:46;26.67;;;17.80;;
24677;SDS011;12800;53.094;8.778;2023-02-15T17:53:13;27.23;;;18.00;;
24677;SDS011;12800;53.094;8.778;2023-02-15T17:55:41;27.40;;;16.53;;
24677;SDS011;12800;53.094;8.778;2023-02-15T17:58:08;26.43;;;18.20;;
24677;SDS011;12800;53.094;8.778;2023-02-15T18:00:37;26.37;;;17.80;;
24677;SDS011;12800;53.094;8.778;2023-02-15T18:03:24;29.17;;;18.23;;
24677;SDS011;12800;53.094;8.778;2023-02-15T18:06:13;28.80;;;19.10;;
24677;SDS011;12800;53.094;8.778;2023-02-15T18:08:57;27.13;;;17.27;;
24677;SDS011;12800;53.094;8.778;2023-02-15T18:11:41;29.97;;;18.03;;
24677;SDS011;12800;53.094;8.778;2023-02-15T18:14:12;27.17;;;18.50;;
24677;SDS011;12800;53.094;8.778;2023-02-15T18:16:39;31.00;;;17.53;;
24677;SDS011;12800;53.094;8.778;2023-02-15T18:19:26;29.20;;;17.80;;
24677;SDS011;12800;53.094;8.778;2023-02-15T18:21:52;28.70;;;17.70;;